sensor_id;sensor_type;location;lat;lon;timestamp;pressure;altitude;pressure_sealevel;temperature;humidity
73501;BME280;61721;42.206;25.320;2024-02-26T00:00:10;99165.94;;;11.85;68.43
73501;BME280;61721;42.206;25.320;2024-02-26T00:02:39;99163.34;;;11.91;68.06
73501;BME280;61721;42.206;25.320;2024-02-26T00:05:07;99161.56;;;11.96;67.94
73501;BME280;61721;42.206;25.320;2024-02-26T00:07:35;99161.31;;;12.09;67.10
73501;BME280;61721;42.206;25.320;2024-02-26T00:10:04;99165.72;;;12.10;67.05
73501;BME280;61721;42.206;25.320;2024-02-26T00:12:31;99162.16;;;12.10;66.37
73501;BME280;61721;42.206;25.320;2024-02-26T00:14:59;99161.44;;;12.03;66.34
73501;BME280;61721;42.206;25.320;2024-02-26T00:17:26;99156.34;;;11.83;67.05
73501;BME280;61721;42.206;25.320;2024-02-26T00:19:55;99154.69;;;11.82;67.24
73501;BME280;61721;42.206;25.320;2024-02-26T00:22:23;99161.69;;;11.89;66.56
73501;BME280;61721;42.206;25.320;2024-02-26T00:24:51;99166.16;;;11.84;67.04
73501;BME280;61721;42.206;25.320;2024-02-26T00:27:18;99169.69;;;11.73;66.94
73501;BME280;61721;42.206;25.320;2024-02-26T00:29:45;99169.03;;;11.89;66.47
73501;BME280;61721;42.206;25.320;2024-02-26T00:32:14;99164.88;;;11.75;66.67
73501;BME280;61721;42.206;25.320;2024-02-26T00:34:41;99170.53;;;11.62;66.91
73501;BME280;61721;42.206;25.320;2024-02-26T00:37:10;99161.06;;;11.76;66.37
73501;BME280;61721;42.206;25.320;2024-02-26T00:39:37;99163.16;;;11.74;66.68
73501;BME280;61721;42.206;25.320;2024-02-26T00:42:05;99162.75;;;11.77;66.48
73501;BME280;61721;42.206;25.320;2024-02-26T00:44:33;99164.66;;;11.88;66.43
73501;BME280;61721;42.206;25.320;2024-02-26T00:47:00;99139.72;;;11.73;66.35
73501;BME280;61721;42.206;25.320;2024-02-26T00:49:28;99152.97;;;11.58;66.71
73501;BME280;61721;42.206;25.320;2024-02-26T00:51:55;99144.25;;;11.79;66.64
73501;BME280;61721;42.206;25.320;2024-02-26T00:54:24;99147.31;;;11.71;66.12
73501;BME280;61721;42.206;25.320;2024-02-26T00:56:52;99152.09;;;11.87;66.01
73501;BME280;61721;42.206;25.320;2024-02-26T00:59:20;99141.88;;;11.71;66.40
73501;BME280;61721;42.206;25.320;2024-02-26T01:01:47;99138.53;;;11.69;66.52
73501;BME280;61721;42.206;25.320;2024-02-26T01:04:14;99135.84;;;11.80;65.81
73501;BME280;61721;42.206;25.320;2024-02-26T01:06:42;99137.16;;;11.78;66.11
73501;BME280;61721;42.206;25.320;2024-02-26T01:09:09;99130.22;;;11.40;67.21
73501;BME280;61721;42.206;25.320;2024-02-26T01:11:38;99129.97;;;11.53;67.08
73501;BME280;61721;42.206;25.320;2024-02-26T01:14:05;99131.38;;;11.44;67.49
73501;BME280;61721;42.206;25.320;2024-02-26T01:16:33;99122.66;;;11.42;67.89
73501;BME280;61721;42.206;25.320;2024-02-26T01:19:00;99126.53;;;11.46;67.64
73501;BME280;61721;42.206;25.320;2024-02-26T01:21:28;99121.69;;;11.48;67.53
73501;BME280;61721;42.206;25.320;2024-02-26T01:23:55;99120.28;;;11.58;67.10
73501;BME280;61721;42.206;25.320;2024-02-26T01:26:23;99117.19;;;11.42;67.83
73501;BME280;61721;42.206;25.320;2024-02-26T01:28:52;99117.78;;;11.44;67.75
73501;BME280;61721;42.206;25.320;2024-02-26T01:31:20;99124.31;;;11.67;67.27
73501;BME280;61721;42.206;25.320;2024-02-26T01:33:48;99128.22;;;11.47;67.63
73501;BME280;61721;42.206;25.320;2024-02-26T01:36:15;99125.13;;;11.56;67.66
73501;BME280;61721;42.206;25.320;2024-02-26T01:38:42;99125.28;;;11.61;66.99
73501;BME280;61721;42.206;25.320;2024-02-26T01:41:10;99125.97;;;11.68;66.78
73501;BME280;61721;42.206;25.320;2024-02-26T01:43:37;99125.22;;;11.37;68.14
73501;BME280;61721;42.206;25.320;2024-02-26T01:46:07;99119.78;;;11.37;68.15
73501;BME280;61721;42.206;25.320;2024-02-26T01:48:39;99120.28;;;11.58;67.41
73501;BME280;61721;42.206;25.320;2024-02-26T01:51:07;99111.50;;;11.56;67.42
73501;BME280;61721;42.206;25.320;2024-02-26T01:53:35;99116.25;;;11.48;67.55
73501;BME280;61721;42.206;25.320;2024-02-26T01:56:02;99116.34;;;11.53;67.40
73501;BME280;61721;42.206;25.320;2024-02-26T01:58:30;99118.13;;;11.48;67.64
73501;BME280;61721;42.206;25.320;2024-02-26T02:00:59;99115.53;;;11.41;67.29
73501;BME280;61721;42.206;25.320;2024-02-26T02:03:30;99115.03;;;11.44;67.54
73501;BME280;61721;42.206;25.320;2024-02-26T02:05:58;99116.47;;;11.35;67.73
73501;BME280;61721;42.206;25.320;2024-02-26T02:08:25;99110.69;;;11.55;67.28
73501;BME280;61721;42.206;25.320;2024-02-26T02:10:54;99113.16;;;11.33;67.63
73501;BME280;61721;42.206;25.320;2024-02-26T02:13:22;99109.84;;;11.54;67.45
73501;BME280;61721;42.206;25.320;2024-02-26T02:15:49;99107.59;;;11.40;68.01
73501;BME280;61721;42.206;25.320;2024-02-26T02:18:16;99109.25;;;11.41;67.78
73501;BME280;61721;42.206;25.320;2024-02-26T02:20:47;99100.47;;;11.39;68.11
73501;BME280;61721;42.206;25.320;2024-02-26T02:23:14;99095.66;;;11.52;67.56
73501;BME280;61721;42.206;25.320;2024-02-26T02:25:41;99099.91;;;11.48;67.66
73501;BME280;61721;42.206;25.320;2024-02-26T02:28:09;99096.22;;;11.54;67.38
73501;BME280;61721;42.206;25.320;2024-02-26T02:30:38;99097.66;;;11.57;67.17
73501;BME280;61721;42.206;25.320;2024-02-26T02:33:07;99101.09;;;11.52;67.96
73501;BME280;61721;42.206;25.320;2024-02-26T02:35:38;99090.28;;;11.46;67.92
73501;BME280;61721;42.206;25.320;2024-02-26T02:38:07;99095.75;;;11.58;67.92
73501;BME280;61721;42.206;25.320;2024-02-26T02:40:34;99086.28;;;11.48;67.73
73501;BME280;61721;42.206;25.320;2024-02-26T02:43:02;99085.94;;;11.57;67.85
73501;BME280;61721;42.206;25.320;2024-02-26T02:45:30;99092.53;;;11.37;68.31
73501;BME280;61721;42.206;25.320;2024-02-26T02:47:57;99088.50;;;11.28;69.02
73501;BME280;61721;42.206;25.320;2024-02-26T02:50:25;99078.81;;;11.32;68.64
73501;BME280;61721;42.206;25.320;2024-02-26T02:52:54;99083.06;;;11.28;68.58
73501;BME280;61721;42.206;25.320;2024-02-26T02:55:23;99080.78;;;11.25;68.64
73501;BME280;61721;42.206;25.320;2024-02-26T02:57:50;99092.28;;;11.27;68.81
73501;BME280;61721;42.206;25.320;2024-02-26T03:00:18;99088.41;;;11.23;68.84
73501;BME280;61721;42.206;25.320;2024-02-26T03:02:45;99094.22;;;11.38;68.31
73501;BME280;61721;42.206;25.320;2024-02-26T03:05:12;99102.59;;;11.37;68.43
73501;BME280;61721;42.206;25.320;2024-02-26T03:07:40;99102.53;;;11.43;67.94
73501;BME280;61721;42.206;25.320;2024-02-26T03:10:08;99102.16;;;11.51;67.55
73501;BME280;61721;42.206;25.320;2024-02-26T03:12:36;99097.78;;;11.50;67.35
73501;BME280;61721;42.206;25.320;2024-02-26T03:15:04;99106.56;;;11.52;67.63
73501;BME280;61721;42.206;25.320;2024-02-26T03:17:32;99104.88;;;11.51;67.32
73501;BME280;61721;42.206;25.320;2024-02-26T03:19:59;99112.25;;;11.63;67.11
73501;BME280;61721;42.206;25.320;2024-02-26T03:22:26;99110.44;;;11.57;67.63
73501;BME280;61721;42.206;25.320;2024-02-26T03:24:54;99110.34;;;11.51;67.89
73501;BME280;61721;42.206;25.320;2024-02-26T03:27:21;99103.69;;;11.47;67.77
73501;BME280;61721;42.206;25.320;2024-02-26T03:29:50;99111.75;;;11.42;67.88
73501;BME280;61721;42.206;25.320;2024-02-26T03:32:18;99112.00;;;11.52;67.56
73501;BME280;61721;42.206;25.320;2024-02-26T03:34:46;99104.28;;;11.38;68.07
73501;BME280;61721;42.206;25.320;2024-02-26T03:37:13;99112.91;;;11.46;67.43
73501;BME280;61721;42.206;25.320;2024-02-26T03:39:40;99105.56;;;11.35;67.82
73501;BME280;61721;42.206;25.320;2024-02-26T03:42:08;99107.00;;;11.49;67.60
73501;BME280;61721;42.206;25.320;2024-02-26T03:44:35;99105.25;;;11.43;67.82
73501;BME280;61721;42.206;25.320;2024-02-26T03:47:04;99101.69;;;11.43;67.72
73501;BME280;61721;42.206;25.320;2024-02-26T03:49:32;99104.03;;;11.39;67.17
73501;BME280;61721;42.206;25.320;2024-02-26T03:51:59;99098.25;;;11.47;67.04
73501;BME280;61721;42.206;25.320;2024-02-26T03:54:27;99098.81;;;11.38;67.72
73501;BME280;61721;42.206;25.320;2024-02-26T03:56:54;99098.22;;;11.24;67.98
73501;BME280;61721;42.206;25.320;2024-02-26T03:59:22;99091.56;;;11.20;67.85
73501;BME280;61721;42.206;25.320;2024-02-26T04:01:51;99093.25;;;11.21;67.80
73501;BME280;61721;42.206;25.320;2024-02-26T04:04:19;99094.16;;;11.15;68.44
73501;BME280;61721;42.206;25.320;2024-02-26T04:06:47;99104.75;;;11.23;68.12
73501;BME280;61721;42.206;25.320;2024-02-26T04:09:14;99100.59;;;11.32;67.78
73501;BME280;61721;42.206;25.320;2024-02-26T04:11:42;99105.31;;;11.25;67.82
73501;BME280;61721;42.206;25.320;2024-02-26T04:14:10;99110.53;;;11.27;67.91
73501;BME280;61721;42.206;25.320;2024-02-26T04:16:38;99112.91;;;11.23;67.55
73501;BME280;61721;42.206;25.320;2024-02-26T04:19:06;99120.88;;;11.06;68.61
73501;BME280;61721;42.206;25.320;2024-02-26T04:21:34;99112.38;;;11.03;68.23
73501;BME280;61721;42.206;25.320;2024-02-26T04:24:02;99106.97;;;11.14;68.11
73501;BME280;61721;42.206;25.320;2024-02-26T04:26:30;99106.03;;;11.21;68.00
73501;BME280;61721;42.206;25.320;2024-02-26T04:28:57;99106.97;;;11.26;67.52
73501;BME280;61721;42.206;25.320;2024-02-26T04:31:26;99112.31;;;11.21;67.78
73501;BME280;61721;42.206;25.320;2024-02-26T04:33:55;99112.16;;;11.16;68.24
73501;BME280;61721;42.206;25.320;2024-02-26T04:36:23;99112.66;;;11.25;67.71
73501;BME280;61721;42.206;25.320;2024-02-26T04:38:53;99113.63;;;11.30;67.61
73501;BME280;61721;42.206;25.320;2024-02-26T04:41:21;99106.97;;;11.26;67.62
73501;BME280;61721;42.206;25.320;2024-02-26T04:43:48;99112.66;;;11.13;67.86
73501;BME280;61721;42.206;25.320;2024-02-26T04:46:16;99122.59;;;11.19;67.53
73501;BME280;61721;42.206;25.320;2024-02-26T04:48:43;99126.78;;;11.33;67.48
73501;BME280;61721;42.206;25.320;2024-02-26T04:51:12;99128.50;;;11.16;67.61
73501;BME280;61721;42.206;25.320;2024-02-26T04:53:39;99126.72;;;11.10;67.99
73501;BME280;61721;42.206;25.320;2024-02-26T04:56:08;99123.53;;;11.13;67.83
73501;BME280;61721;42.206;25.320;2024-02-26T04:58:35;99127.59;;;11.22;67.55
73501;BME280;61721;42.206;25.320;2024-02-26T05:01:03;99130.41;;;11.27;67.60
73501;BME280;61721;42.206;25.320;2024-02-26T05:03:31;99134.53;;;11.18;67.51
73501;BME280;61721;42.206;25.320;2024-02-26T05:05:58;99131.03;;;11.29;67.49
73501;BME280;61721;42.206;25.320;2024-02-26T05:08:26;99130.69;;;11.37;67.21
73501;BME280;61721;42.206;25.320;2024-02-26T05:10:54;99126.44;;;11.53;66.33
73501;BME280;61721;42.206;25.320;2024-02-26T05:13:23;99136.75;;;11.51;66.22
73501;BME280;61721;42.206;25.320;2024-02-26T05:15:51;99137.97;;;11.25;67.26
73501;BME280;61721;42.206;25.320;2024-02-26T05:18:18;99129.25;;;11.23;67.48
73501;BME280;61721;42.206;25.320;2024-02-26T05:20:46;99130.41;;;11.27;66.97
73501;BME280;61721;42.206;25.320;2024-02-26T05:23:14;99129.25;;;11.46;66.19
73501;BME280;61721;42.206;25.320;2024-02-26T05:25:44;99128.56;;;11.39;66.73
73501;BME280;61721;42.206;25.320;2024-02-26T05:28:13;99122.84;;;11.29;66.99
73501;BME280;61721;42.206;25.320;2024-02-26T05:30:44;99141.81;;;11.47;66.36
73501;BME280;61721;42.206;25.320;2024-02-26T05:33:11;99143.03;;;11.51;66.02
73501;BME280;61721;42.206;25.320;2024-02-26T05:35:40;99148.69;;;11.38;66.65
73501;BME280;61721;42.206;25.320;2024-02-26T05:38:07;99149.78;;;11.49;66.35
73501;BME280;61721;42.206;25.320;2024-02-26T05:40:34;99162.44;;;11.43;66.62
73501;BME280;61721;42.206;25.320;2024-02-26T05:43:02;99159.31;;;11.28;67.12
73501;BME280;61721;42.206;25.320;2024-02-26T05:45:29;99163.16;;;11.50;66.33
73501;BME280;61721;42.206;25.320;2024-02-26T05:47:58;99160.91;;;11.59;66.29
73501;BME280;61721;42.206;25.320;2024-02-26T05:50:25;99161.94;;;11.46;66.64
73501;BME280;61721;42.206;25.320;2024-02-26T05:52:53;99165.41;;;11.53;66.39
73501;BME280;61721;42.206;25.320;2024-02-26T05:55:20;99170.88;;;11.65;65.62
73501;BME280;61721;42.206;25.320;2024-02-26T05:57:48;99169.63;;;11.91;65.03
73501;BME280;61721;42.206;25.320;2024-02-26T06:00:16;99167.84;;;11.97;64.62
73501;BME280;61721;42.206;25.320;2024-02-26T06:02:43;99164.88;;;11.98;64.52
73501;BME280;61721;42.206;25.320;2024-02-26T06:05:12;99175.66;;;12.05;64.67
73501;BME280;61721;42.206;25.320;2024-02-26T06:07:39;99172.94;;;11.93;64.33
73501;BME280;61721;42.206;25.320;2024-02-26T06:10:07;99177.81;;;11.91;64.62
73501;BME280;61721;42.206;25.320;2024-02-26T06:12:35;99183.84;;;12.16;64.14
73501;BME280;61721;42.206;25.320;2024-02-26T06:15:03;99179.81;;;12.07;63.84
73501;BME280;61721;42.206;25.320;2024-02-26T06:17:30;99168.91;;;12.07;63.95
73501;BME280;61721;42.206;25.320;2024-02-26T06:19:58;99171.84;;;11.82;65.05
73501;BME280;61721;42.206;25.320;2024-02-26T06:22:27;99171.25;;;11.92;65.08
73501;BME280;61721;42.206;25.320;2024-02-26T06:24:55;99168.53;;;12.04;64.50
73501;BME280;61721;42.206;25.320;2024-02-26T06:27:22;99170.31;;;12.33;63.98
73501;BME280;61721;42.206;25.320;2024-02-26T06:29:50;99182.63;;;12.36;63.17
73501;BME280;61721;42.206;25.320;2024-02-26T06:32:17;99172.19;;;12.33;63.32
73501;BME280;61721;42.206;25.320;2024-02-26T06:34:45;99174.28;;;12.54;62.63
73501;BME280;61721;42.206;25.320;2024-02-26T06:37:14;99172.97;;;12.68;62.09
73501;BME280;61721;42.206;25.320;2024-02-26T06:39:45;99187.09;;;12.65;62.39
73501;BME280;61721;42.206;25.320;2024-02-26T06:42:15;99183.41;;;12.59;62.75
73501;BME280;61721;42.206;25.320;2024-02-26T06:44:43;99197.72;;;12.15;64.45
73501;BME280;61721;42.206;25.320;2024-02-26T06:47:10;99194.75;;;12.16;64.89
73501;BME280;61721;42.206;25.320;2024-02-26T06:49:38;99201.34;;;11.62;67.45
73501;BME280;61721;42.206;25.320;2024-02-26T06:52:06;99201.22;;;10.97;69.93
73501;BME280;61721;42.206;25.320;2024-02-26T06:54:33;99207.31;;;10.81;70.51
73501;BME280;61721;42.206;25.320;2024-02-26T06:57:02;99206.78;;;10.72;70.97
73501;BME280;61721;42.206;25.320;2024-02-26T06:59:30;99202.25;;;10.85;71.61
73501;BME280;61721;42.206;25.320;2024-02-26T07:01:57;99201.19;;;11.15;70.61
73501;BME280;61721;42.206;25.320;2024-02-26T07:04:24;99203.75;;;11.40;69.34
73501;BME280;61721;42.206;25.320;2024-02-26T07:06:52;99208.34;;;11.28;69.33
73501;BME280;61721;42.206;25.320;2024-02-26T07:09:19;99201.81;;;11.29;69.55
73501;BME280;61721;42.206;25.320;2024-02-26T07:11:46;99203.38;;;11.37;69.57
73501;BME280;61721;42.206;25.320;2024-02-26T07:14:15;99211.66;;;11.00;71.02
73501;BME280;61721;42.206;25.320;2024-02-26T07:16:42;99213.31;;;11.31;69.42
73501;BME280;61721;42.206;25.320;2024-02-26T07:19:10;99217.00;;;11.37;69.52
73501;BME280;61721;42.206;25.320;2024-02-26T07:21:37;99212.31;;;11.14;70.43
73501;BME280;61721;42.206;25.320;2024-02-26T07:24:05;99214.44;;;11.12;70.13
73501;BME280;61721;42.206;25.320;2024-02-26T07:26:33;99214.78;;;11.45;69.48
73501;BME280;61721;42.206;25.320;2024-02-26T07:29:00;99204.88;;;11.63;68.85
73501;BME280;61721;42.206;25.320;2024-02-26T07:31:31;99212.22;;;11.74;68.20
73501;BME280;61721;42.206;25.320;2024-02-26T07:33:59;99215.16;;;11.49;68.99
73501;BME280;61721;42.206;25.320;2024-02-26T07:36:26;99209.97;;;11.59;69.12
73501;BME280;61721;42.206;25.320;2024-02-26T07:38:54;99205.88;;;12.03;67.08
73501;BME280;61721;42.206;25.320;2024-02-26T07:41:21;99212.75;;;11.41;68.79
73501;BME280;61721;42.206;25.320;2024-02-26T07:43:48;99217.09;;;11.30;69.35
73501;BME280;61721;42.206;25.320;2024-02-26T07:46:16;99211.25;;;11.57;69.01
73501;BME280;61721;42.206;25.320;2024-02-26T07:48:45;99211.25;;;11.57;69.06
73501;BME280;61721;42.206;25.320;2024-02-26T07:51:12;99205.78;;;12.10;67.54
73501;BME280;61721;42.206;25.320;2024-02-26T07:53:40;99218.50;;;11.74;67.98
73501;BME280;61721;42.206;25.320;2024-02-26T07:56:09;99215.63;;;11.58;67.80
73501;BME280;61721;42.206;25.320;2024-02-26T07:58:36;99212.91;;;11.58;68.22
73501;BME280;61721;42.206;25.320;2024-02-26T08:01:03;99208.09;;;11.71;67.72
73501;BME280;61721;42.206;25.320;2024-02-26T08:03:31;99217.75;;;11.97;67.05
73501;BME280;61721;42.206;25.320;2024-02-26T08:06:00;99216.09;;;11.96;66.11
73501;BME280;61721;42.206;25.320;2024-02-26T08:08:27;99210.84;;;11.83;67.30
73501;BME280;61721;42.206;25.320;2024-02-26T08:10:54;99218.72;;;11.91;67.16
73501;BME280;61721;42.206;25.320;2024-02-26T08:13:22;99220.72;;;11.96;66.63
73501;BME280;61721;42.206;25.320;2024-02-26T08:15:50;99213.84;;;12.16;66.29
73501;BME280;61721;42.206;25.320;2024-02-26T08:18:17;99206.81;;;12.44;65.41
73501;BME280;61721;42.206;25.320;2024-02-26T08:20:45;99220.06;;;12.75;64.91
73501;BME280;61721;42.206;25.320;2024-02-26T08:23:16;99209.84;;;13.11;64.39
73501;BME280;61721;42.206;25.320;2024-02-26T08:25:43;99210.84;;;13.33;63.16
73501;BME280;61721;42.206;25.320;2024-02-26T08:28:10;99218.13;;;12.87;64.03
73501;BME280;61721;42.206;25.320;2024-02-26T08:30:39;99213.69;;;12.58;65.25
73501;BME280;61721;42.206;25.320;2024-02-26T08:33:06;99202.06;;;12.51;64.80
73501;BME280;61721;42.206;25.320;2024-02-26T08:35:34;99205.06;;;12.14;65.97
73501;BME280;61721;42.206;25.320;2024-02-26T08:38:01;99208.88;;;13.17;64.39
73501;BME280;61721;42.206;25.320;2024-02-26T08:40:30;99218.38;;;13.71;61.88
73501;BME280;61721;42.206;25.320;2024-02-26T08:42:58;99219.50;;;13.75;61.24
73501;BME280;61721;42.206;25.320;2024-02-26T08:45:25;99213.16;;;14.03;60.42
73501;BME280;61721;42.206;25.320;2024-02-26T08:47:53;99207.91;;;13.85;60.36
73501;BME280;61721;42.206;25.320;2024-02-26T08:50:20;99214.53;;;13.55;60.92
73501;BME280;61721;42.206;25.320;2024-02-26T08:52:48;99218.69;;;13.74;61.54
73501;BME280;61721;42.206;25.320;2024-02-26T08:55:16;99212.25;;;13.81;60.38
73501;BME280;61721;42.206;25.320;2024-02-26T08:57:45;99209.56;;;13.52;61.45
73501;BME280;61721;42.206;25.320;2024-02-26T09:00:13;99203.28;;;13.68;61.95
73501;BME280;61721;42.206;25.320;2024-02-26T09:02:43;99197.44;;;14.48;60.45
73501;BME280;61721;42.206;25.320;2024-02-26T09:05:11;99194.13;;;14.46;58.95
73501;BME280;61721;42.206;25.320;2024-02-26T09:07:38;99193.16;;;14.19;59.38
73501;BME280;61721;42.206;25.320;2024-02-26T09:10:06;99198.72;;;14.63;59.10
73501;BME280;61721;42.206;25.320;2024-02-26T09:12:36;99204.41;;;14.23;59.58
73501;BME280;61721;42.206;25.320;2024-02-26T09:15:07;99192.97;;;14.42;59.63
73501;BME280;61721;42.206;25.320;2024-02-26T09:17:34;99190.56;;;14.68;58.58
73501;BME280;61721;42.206;25.320;2024-02-26T09:20:02;99189.88;;;14.77;58.15
73501;BME280;61721;42.206;25.320;2024-02-26T09:22:31;99196.81;;;14.85;57.86
73501;BME280;61721;42.206;25.320;2024-02-26T09:25:00;99184.31;;;14.94;58.01
73501;BME280;61721;42.206;25.320;2024-02-26T09:27:27;99189.16;;;15.09;57.09
73501;BME280;61721;42.206;25.320;2024-02-26T09:29:56;99185.16;;;14.73;58.11
73501;BME280;61721;42.206;25.320;2024-02-26T09:32:25;99189.97;;;14.27;59.13
73501;BME280;61721;42.206;25.320;2024-02-26T09:34:52;99183.22;;;13.96;59.96
73501;BME280;61721;42.206;25.320;2024-02-26T09:37:20;99181.03;;;14.48;59.23
73501;BME280;61721;42.206;25.320;2024-02-26T09:39:48;99187.63;;;14.53;58.71
73501;BME280;61721;42.206;25.320;2024-02-26T09:42:25;99189.94;;;14.61;58.15
73501;BME280;61721;42.206;25.320;2024-02-26T09:44:54;99188.97;;;14.33;58.79
73501;BME280;61721;42.206;25.320;2024-02-26T09:47:24;99186.31;;;14.38;59.10
73501;BME280;61721;42.206;25.320;2024-02-26T09:49:53;99197.63;;;14.25;58.90
73501;BME280;61721;42.206;25.320;2024-02-26T09:52:23;99200.91;;;14.61;59.45
73501;BME280;61721;42.206;25.320;2024-02-26T09:54:58;99197.84;;;14.79;58.91
73501;BME280;61721;42.206;25.320;2024-02-26T09:57:26;99176.44;;;14.37;58.91
73501;BME280;61721;42.206;25.320;2024-02-26T09:59:54;99173.69;;;14.54;58.42
73501;BME280;61721;42.206;25.320;2024-02-26T10:02:28;99179.00;;;14.61;57.53
73501;BME280;61721;42.206;25.320;2024-02-26T10:04:59;99165.72;;;14.96;57.66
73501;BME280;61721;42.206;25.320;2024-02-26T10:07:31;99170.84;;;15.41;56.20
73501;BME280;61721;42.206;25.320;2024-02-26T10:09:59;99168.03;;;15.09;55.79
73501;BME280;61721;42.206;25.320;2024-02-26T10:12:26;99172.97;;;15.07;56.42
73501;BME280;61721;42.206;25.320;2024-02-26T10:14:56;99159.28;;;15.34;55.28
73501;BME280;61721;42.206;25.320;2024-02-26T10:17:25;99152.34;;;15.27;55.61
73501;BME280;61721;42.206;25.320;2024-02-26T10:19:54;99153.22;;;15.05;55.10
73501;BME280;61721;42.206;25.320;2024-02-26T10:22:22;99147.47;;;15.34;54.38
73501;BME280;61721;42.206;25.320;2024-02-26T10:24:50;99144.22;;;15.37;53.62
73501;BME280;61721;42.206;25.320;2024-02-26T10:27:18;99136.13;;;15.52;53.42
73501;BME280;61721;42.206;25.320;2024-02-26T10:29:46;99135.66;;;15.55;53.43
73501;BME280;61721;42.206;25.320;2024-02-26T10:32:13;99128.59;;;15.64;53.17
73501;BME280;61721;42.206;25.320;2024-02-26T10:34:41;99120.03;;;15.61;52.88
73501;BME280;61721;42.206;25.320;2024-02-26T10:37:10;99113.22;;;15.63;52.40
73501;BME280;61721;42.206;25.320;2024-02-26T10:39:37;99111.91;;;15.71;52.66
73501;BME280;61721;42.206;25.320;2024-02-26T10:42:12;99114.34;;;15.40;53.41
73501;BME280;61721;42.206;25.320;2024-02-26T10:44:40;99118.47;;;15.38;53.35
73501;BME280;61721;42.206;25.320;2024-02-26T10:47:09;99115.13;;;15.63;52.83
73501;BME280;61721;42.206;25.320;2024-02-26T10:49:37;99113.47;;;15.99;51.99
73501;BME280;61721;42.206;25.320;2024-02-26T10:52:05;99098.34;;;15.96;51.43
73501;BME280;61721;42.206;25.320;2024-02-26T10:54:36;99104.81;;;15.48;52.35
73501;BME280;61721;42.206;25.320;2024-02-26T10:57:08;99106.97;;;15.41;53.47
73501;BME280;61721;42.206;25.320;2024-02-26T10:59:36;99099.53;;;15.36;53.25
73501;BME280;61721;42.206;25.320;2024-02-26T11:02:07;99099.91;;;15.50;51.72
73501;BME280;61721;42.206;25.320;2024-02-26T11:04:37;99100.56;;;15.57;52.35
73501;BME280;61721;42.206;25.320;2024-02-26T11:07:05;99098.25;;;15.76;52.00
73501;BME280;61721;42.206;25.320;2024-02-26T11:09:33;99088.50;;;16.00;50.75
73501;BME280;61721;42.206;25.320;2024-02-26T11:12:03;99091.69;;;16.29;48.95
73501;BME280;61721;42.206;25.320;2024-02-26T11:14:36;99081.88;;;16.43;48.43
73501;BME280;61721;42.206;25.320;2024-02-26T11:17:07;99080.06;;;16.12;48.83
73501;BME280;61721;42.206;25.320;2024-02-26T11:19:36;99084.47;;;16.18;47.72
73501;BME280;61721;42.206;25.320;2024-02-26T11:22:04;99079.66;;;16.40;48.09
73501;BME280;61721;42.206;25.320;2024-02-26T11:24:33;99074.69;;;16.32;48.17
73501;BME280;61721;42.206;25.320;2024-02-26T11:27:06;99073.75;;;16.74;48.01
73501;BME280;61721;42.206;25.320;2024-02-26T11:29:39;99076.56;;;17.14;46.45
73501;BME280;61721;42.206;25.320;2024-02-26T11:32:08;99073.84;;;17.34;45.68
73501;BME280;61721;42.206;25.320;2024-02-26T11:34:36;99078.28;;;17.66;45.16
73501;BME280;61721;42.206;25.320;2024-02-26T11:37:12;99080.69;;;16.91;45.38
73501;BME280;61721;42.206;25.320;2024-02-26T11:39:40;99076.56;;;17.04;46.39
73501;BME280;61721;42.206;25.320;2024-02-26T11:42:09;99089.97;;;16.70;47.71
73501;BME280;61721;42.206;25.320;2024-02-26T11:44:37;99075.25;;;16.39;47.56
73501;BME280;61721;42.206;25.320;2024-02-26T11:47:11;99072.41;;;16.19;48.10
73501;BME280;61721;42.206;25.320;2024-02-26T11:49:38;99071.97;;;16.47;46.93
73501;BME280;61721;42.206;25.320;2024-02-26T11:52:08;99068.81;;;16.76;47.16
73501;BME280;61721;42.206;25.320;2024-02-26T11:54:40;99063.03;;;16.82;47.73
73501;BME280;61721;42.206;25.320;2024-02-26T11:57:25;99060.03;;;16.84;47.93
73501;BME280;61721;42.206;25.320;2024-02-26T11:59:54;99059.13;;;16.58;48.89
73501;BME280;61721;42.206;25.320;2024-02-26T12:02:40;99051.63;;;16.38;48.31
73501;BME280;61721;42.206;25.320;2024-02-26T12:05:10;99059.88;;;16.33;48.44
73501;BME280;61721;42.206;25.320;2024-02-26T12:07:45;99051.06;;;16.31;48.73
73501;BME280;61721;42.206;25.320;2024-02-26T12:10:22;99053.00;;;16.36;49.03
73501;BME280;61721;42.206;25.320;2024-02-26T12:12:55;99044.09;;;16.71;47.18
73501;BME280;61721;42.206;25.320;2024-02-26T12:15:30;99046.84;;;16.86;46.51
73501;BME280;61721;42.206;25.320;2024-02-26T12:18:01;99050.72;;;16.90;46.71
73501;BME280;61721;42.206;25.320;2024-02-26T12:20:28;99035.50;;;16.52;47.47
73501;BME280;61721;42.206;25.320;2024-02-26T12:22:56;99037.31;;;16.26;48.78
73501;BME280;61721;42.206;25.320;2024-02-26T12:25:25;99032.97;;;16.40;48.74
73501;BME280;61721;42.206;25.320;2024-02-26T12:27:55;99035.81;;;16.65;48.12
73501;BME280;61721;42.206;25.320;2024-02-26T12:30:22;99042.38;;;16.59;48.46
73501;BME280;61721;42.206;25.320;2024-02-26T12:32:52;99047.91;;;16.75;47.89
73501;BME280;61721;42.206;25.320;2024-02-26T12:35:23;99047.41;;;16.93;47.70
73501;BME280;61721;42.206;25.320;2024-02-26T12:37:51;99040.78;;;16.84;47.54
73501;BME280;61721;42.206;25.320;2024-02-26T12:40:19;99040.78;;;16.84;47.58
73501;BME280;61721;42.206;25.320;2024-02-26T12:42:47;99040.72;;;16.58;47.32
73501;BME280;61721;42.206;25.320;2024-02-26T12:45:16;99038.53;;;16.60;47.71
73501;BME280;61721;42.206;25.320;2024-02-26T12:47:45;99045.66;;;16.56;47.06
73501;BME280;61721;42.206;25.320;2024-02-26T12:50:13;99042.38;;;16.59;47.68
73501;BME280;61721;42.206;25.320;2024-02-26T12:52:44;99040.13;;;16.41;48.55
73501;BME280;61721;42.206;25.320;2024-02-26T12:55:15;99043.03;;;16.97;48.03